createdAt,value
2022-12-25T00:02:23.165Z,35.42
2022-12-25T00:04:50.050Z,35.40
2022-12-25T00:07:16.931Z,35.33
2022-12-25T00:09:43.844Z,35.30
2022-12-25T00:12:10.745Z,35.15
2022-12-25T00:14:38.977Z,35.37
2022-12-25T00:17:05.926Z,35.34
2022-12-25T00:19:33.097Z,35.18
2022-12-25T00:21:59.982Z,35.50
2022-12-25T00:24:26.899Z,35.14
2022-12-25T00:26:53.791Z,35.40
2022-12-25T00:29:20.685Z,35.26
2022-12-25T00:31:49.161Z,35.44
2022-12-25T00:34:16.157Z,35.49
2022-12-25T00:36:43.123Z,35.53
2022-12-25T00:39:10.472Z,35.46
2022-12-25T00:41:56.278Z,35.35
2022-12-25T00:44:23.158Z,35.16
2022-12-25T00:46:51.498Z,35.44
2022-12-25T00:49:18.499Z,35.45
2022-12-25T00:51:45.554Z,35.47
2022-12-25T00:54:12.493Z,35.71
2022-12-25T00:56:40.096Z,35.33
2022-12-25T00:59:07.536Z,35.29
2022-12-25T01:01:34.825Z,35.42
2022-12-25T01:04:03.327Z,35.27
2022-12-25T01:06:30.573Z,35.26
2022-12-25T01:09:16.455Z,35.57
2022-12-25T01:11:43.502Z,35.44
2022-12-25T01:14:10.775Z,35.39
2022-12-25T01:16:38.233Z,35.38
2022-12-25T01:19:06.561Z,35.35
2022-12-25T01:21:33.863Z,35.55
2022-12-25T01:24:00.733Z,35.39
2022-12-25T01:26:27.899Z,35.35
2022-12-25T01:28:55.173Z,35.20
2022-12-25T01:31:24.131Z,35.50
2022-12-25T01:33:51.594Z,35.36
2022-12-25T01:36:22.075Z,35.70
2022-12-25T01:38:50.476Z,35.38
2022-12-25T01:41:19.346Z,35.45
2022-12-25T01:44:01.101Z,35.51
2022-12-25T01:46:28.434Z,35.42
2022-12-25T01:48:59.001Z,35.30
2022-12-25T01:51:32.015Z,35.41
2022-12-25T01:54:02.367Z,35.19
2022-12-25T01:56:30.198Z,35.07
2022-12-25T01:58:58.474Z,35.37
2022-12-25T02:01:25.757Z,35.44
2022-12-25T02:03:59.330Z,35.46
2022-12-25T02:06:30.767Z,35.39
2022-12-25T02:08:59.210Z,35.54
2022-12-25T02:11:44.888Z,35.41
2022-12-25T02:14:11.920Z,35.09
2022-12-25T02:16:57.864Z,35.25
2022-12-25T02:19:38.497Z,35.33
2022-12-25T02:22:21.283Z,35.25
2022-12-25T02:24:57.488Z,35.18
2022-12-25T02:28:01.045Z,35.48
2022-12-25T02:30:35.674Z,35.30
2022-12-25T02:33:28.137Z,35.21
2022-12-25T02:35:57.153Z,35.29
2022-12-25T02:38:31.122Z,35.46
2022-12-25T02:41:01.766Z,35.39
2022-12-25T02:43:51.340Z,35.30
2022-12-25T02:46:42.430Z,35.03
2022-12-25T02:49:31.606Z,35.42
2022-12-25T02:52:22.633Z,35.15
2022-12-25T02:55:13.193Z,35.32
2022-12-25T02:58:01.224Z,35.31
2022-12-25T03:00:47.561Z,35.37
2022-12-25T03:03:35.711Z,35.41
2022-12-25T03:06:23.758Z,35.25
2022-12-25T03:08:54.395Z,35.25
2022-12-25T03:11:33.618Z,35.27
2022-12-25T03:14:21.185Z,35.08
2022-12-25T03:16:50.631Z,35.29
2022-12-25T03:19:39.941Z,35.37
2022-12-25T03:22:26.664Z,35.36
2022-12-25T03:25:13.520Z,35.33
2022-12-25T03:27:44.467Z,35.43
2022-12-25T03:30:30.838Z,35.23
2022-12-25T03:33:23.294Z,35.18
2022-12-25T03:36:03.928Z,35.22
2022-12-25T03:38:49.972Z,35.16
2022-12-25T03:41:44.311Z,35.40
2022-12-25T03:44:40.221Z,35.43
2022-12-25T03:47:32.463Z,35.50
2022-12-25T03:50:24.579Z,35.37
2022-12-25T03:53:14.203Z,35.31
2022-12-25T03:56:00.557Z,35.25
2022-12-25T03:58:46.892Z,35.43
2022-12-25T04:01:32.911Z,35.27
2022-12-25T04:04:18.936Z,35.34
2022-12-25T04:07:04.212Z,35.46
2022-12-25T04:09:51.424Z,35.36
2022-12-25T04:12:36.737Z,35.20
2022-12-25T04:15:22.662Z,35.63
2022-12-25T04:18:10.402Z,35.39
2022-12-25T04:20:55.681Z,35.30
2022-12-25T04:23:40.808Z,35.11
2022-12-25T04:26:27.308Z,35.54
2022-12-25T04:29:12.512Z,35.46
2022-12-25T04:31:57.817Z,35.43
2022-12-25T04:34:43.036Z,35.39
2022-12-25T04:37:10.096Z,35.50
2022-12-25T04:39:36.954Z,35.59
2022-12-25T04:42:05.317Z,35.56
2022-12-25T04:44:32.184Z,35.31
2022-12-25T04:46:59.214Z,35.52
2022-12-25T04:49:26.880Z,35.45
2022-12-25T04:51:53.925Z,35.35
2022-12-25T04:54:20.886Z,35.26
2022-12-25T04:56:47.851Z,35.22
2022-12-25T04:59:16.108Z,35.46
2022-12-25T05:01:43.204Z,35.22
2022-12-25T05:04:10.279Z,35.50
2022-12-25T05:06:37.418Z,35.33
2022-12-25T05:09:04.429Z,35.56
2022-12-25T05:11:31.371Z,35.35
2022-12-25T05:13:58.529Z,35.12
2022-12-25T05:16:27.253Z,35.15
2022-12-25T05:18:54.181Z,35.35
2022-12-25T05:21:21.279Z,35.16
2022-12-25T05:23:49.977Z,35.33
2022-12-25T05:26:19.017Z,35.55
2022-12-25T05:28:45.989Z,35.22
2022-12-25T05:31:13.123Z,35.33
2022-12-25T05:33:41.651Z,35.37
2022-12-25T05:36:11.426Z,35.21
2022-12-25T05:38:39.113Z,35.18
2022-12-25T05:41:05.968Z,35.38
2022-12-25T05:43:33.406Z,35.36
2022-12-25T05:46:06.043Z,35.22
2022-12-25T05:48:33.406Z,35.21
2022-12-25T05:51:05.775Z,35.40
2022-12-25T05:53:32.770Z,35.35
2022-12-25T05:56:02.899Z,35.21
2022-12-25T05:58:30.108Z,35.64
2022-12-25T06:00:57.518Z,35.36
2022-12-25T06:03:24.788Z,35.05
2022-12-25T06:05:52.500Z,35.26
2022-12-25T06:08:21.154Z,35.14
2022-12-25T06:10:48.154Z,35.21
2022-12-25T06:13:15.178Z,35.37
2022-12-25T06:15:42.571Z,35.33
2022-12-25T06:18:09.509Z,35.25
2022-12-25T06:20:36.458Z,35.26
2022-12-25T06:23:03.354Z,35.17
2022-12-25T06:25:31.752Z,35.17
2022-12-25T06:27:58.694Z,34.96
2022-12-25T06:30:25.847Z,34.86
2022-12-25T06:32:52.761Z,34.86
2022-12-25T06:35:19.680Z,34.96
2022-12-25T06:37:46.540Z,34.97
2022-12-25T06:40:14.210Z,34.85
2022-12-25T06:42:42.430Z,34.83
2022-12-25T06:45:10.766Z,34.69
2022-12-25T06:47:37.930Z,34.45
2022-12-25T06:50:06.313Z,34.13
2022-12-25T06:52:33.762Z,34.86
2022-12-25T06:55:00.671Z,34.36
2022-12-25T06:57:27.548Z,34.54
2022-12-25T06:59:56.083Z,34.28
2022-12-25T07:02:24.503Z,34.60
2022-12-25T07:04:52.463Z,34.23
2022-12-25T07:07:20.784Z,34.01
2022-12-25T07:09:47.676Z,34.22
2022-12-25T07:12:17.047Z,34.04
2022-12-25T07:14:43.993Z,34.18
2022-12-25T07:17:12.278Z,34.29
2022-12-25T07:19:44.619Z,34.10
2022-12-25T07:22:12.607Z,34.07
2022-12-25T07:24:39.477Z,33.90
2022-12-25T07:27:06.405Z,33.90
2022-12-25T07:29:33.296Z,33.92
2022-12-25T07:32:00.374Z,34.05
2022-12-25T07:34:28.671Z,34.18
2022-12-25T07:36:55.616Z,33.76
2022-12-25T07:39:23.811Z,33.75
2022-12-25T07:41:51.326Z,33.44
2022-12-25T07:44:18.468Z,33.78
2022-12-25T07:46:45.706Z,33.51
2022-12-25T07:49:13.074Z,33.75
2022-12-25T07:51:41.383Z,33.91
2022-12-25T07:54:08.473Z,33.38
2022-12-25T07:56:35.362Z,34.06
2022-12-25T07:59:02.227Z,33.61
2022-12-25T08:01:29.984Z,33.76
2022-12-25T08:03:59.087Z,33.47
2022-12-25T08:06:29.824Z,33.56
2022-12-25T08:09:03.671Z,33.65
2022-12-25T08:11:30.673Z,33.72
2022-12-25T08:13:57.524Z,33.52
2022-12-25T08:16:24.901Z,33.65
2022-12-25T08:18:51.885Z,33.83
2022-12-25T08:21:19.040Z,33.52
2022-12-25T08:23:47.269Z,33.64
2022-12-25T08:26:17.449Z,33.73
2022-12-25T08:28:44.704Z,33.64
2022-12-25T08:31:14.785Z,33.82
2022-12-25T08:33:42.704Z,33.57
2022-12-25T08:36:11.081Z,33.83
2022-12-25T08:38:38.544Z,33.81
2022-12-25T08:41:05.858Z,33.84
2022-12-25T08:43:34.113Z,33.45
2022-12-25T08:46:01.056Z,33.76
2022-12-25T08:48:28.565Z,33.71
2022-12-25T08:50:55.617Z,33.76
2022-12-25T08:53:22.857Z,33.84
2022-12-25T08:55:49.776Z,33.82
2022-12-25T08:58:16.758Z,34.16
2022-12-25T09:00:45.047Z,34.18
2022-12-25T09:03:12.056Z,34.20
2022-12-25T09:05:38.943Z,33.86
2022-12-25T09:08:05.898Z,34.08
2022-12-25T09:10:36.686Z,34.17
2022-12-25T09:13:04.343Z,33.77
2022-12-25T09:15:31.808Z,33.98
2022-12-25T09:18:00.207Z,34.25
2022-12-25T09:20:27.070Z,33.95
2022-12-25T09:22:53.995Z,33.99
2022-12-25T09:25:20.873Z,33.96
2022-12-25T09:27:47.738Z,34.09
2022-12-25T09:30:15.374Z,33.70
2022-12-25T09:32:42.253Z,34.26
2022-12-25T09:35:10.700Z,34.00
2022-12-25T09:37:37.849Z,34.18
2022-12-25T09:40:05.953Z,34.06
2022-12-25T09:42:34.539Z,33.94
2022-12-25T09:45:05.945Z,33.94
2022-12-25T09:47:34.205Z,34.02
2022-12-25T09:50:07.229Z,33.88
2022-12-25T09:52:44.990Z,34.34
2022-12-25T09:55:19.832Z,34.48
2022-12-25T09:57:50.634Z,34.40
2022-12-25T10:00:19.864Z,34.51
2022-12-25T10:03:11.625Z,34.39
2022-12-25T10:05:57.529Z,34.20
2022-12-25T10:08:37.353Z,34.70
2022-12-25T10:11:18.569Z,34.33
2022-12-25T10:13:58.779Z,34.48
2022-12-25T10:16:36.248Z,34.49
2022-12-25T10:19:14.394Z,34.88
2022-12-25T10:21:41.422Z,34.80
2022-12-25T10:24:21.129Z,34.71
2022-12-25T10:26:50.600Z,34.62
2022-12-25T10:29:22.181Z,34.77
2022-12-25T10:31:53.683Z,34.76
2022-12-25T10:34:21.094Z,34.76
2022-12-25T10:36:50.059Z,35.00
2022-12-25T10:39:20.010Z,34.88
2022-12-25T10:42:03.455Z,34.68
2022-12-25T10:44:30.604Z,34.97
2022-12-25T10:46:59.235Z,34.71
2022-12-25T10:49:35.226Z,34.79
2022-12-25T10:52:03.866Z,34.64
2022-12-25T10:54:35.236Z,34.78
2022-12-25T10:57:02.826Z,34.97
2022-12-25T10:59:34.053Z,34.82
2022-12-25T11:02:11.677Z,34.87
2022-12-25T11:04:38.764Z,34.74
2022-12-25T11:07:07.595Z,35.21
2022-12-25T11:09:35.940Z,35.14
2022-12-25T11:12:02.953Z,34.99
2022-12-25T11:14:30.697Z,34.99
2022-12-25T11:17:07.700Z,35.02
2022-12-25T11:19:34.634Z,35.04
2022-12-25T11:22:03.873Z,35.01
2022-12-25T11:24:32.432Z,35.27
2022-12-25T11:27:02.800Z,35.18
2022-12-25T11:29:37.386Z,34.91
2022-12-25T11:32:11.087Z,35.11
2022-12-25T11:34:43.904Z,35.00
2022-12-25T11:37:16.182Z,34.96
2022-12-25T11:39:43.404Z,35.08
2022-12-25T11:42:16.282Z,35.21
2022-12-25T11:44:49.676Z,35.23
2022-12-25T11:47:21.906Z,35.29
2022-12-25T11:50:00.748Z,35.06
2022-12-25T11:52:32.475Z,35.47
2022-12-25T11:55:02.512Z,35.35
2022-12-25T11:57:33.295Z,35.22
2022-12-25T12:00:06.970Z,35.13
2022-12-25T12:02:38.800Z,35.48
2022-12-25T12:05:18.859Z,35.49
2022-12-25T12:07:55.589Z,35.31
2022-12-25T12:10:41.622Z,35.33
2022-12-25T12:13:32.155Z,35.40
2022-12-25T12:15:59.374Z,35.41
2022-12-25T12:18:31.995Z,35.33
2022-12-25T12:21:01.938Z,35.38
2022-12-25T12:23:31.015Z,35.45
2022-12-25T12:25:58.291Z,35.40
2022-12-25T12:28:28.430Z,35.52
2022-12-25T12:31:01.828Z,35.49
2022-12-25T12:33:33.859Z,35.46
2022-12-25T12:36:02.277Z,35.44
2022-12-25T12:38:30.973Z,35.41
2022-12-25T12:41:00.717Z,35.36
2022-12-25T12:43:33.564Z,35.36
2022-12-25T12:46:05.385Z,35.31
2022-12-25T12:48:40.574Z,35.14
2022-12-25T12:51:10.898Z,35.24
2022-12-25T12:53:39.660Z,35.58
2022-12-25T12:56:15.893Z,35.41
2022-12-25T12:58:49.931Z,35.75
2022-12-25T13:01:39.283Z,35.69
2022-12-25T13:04:32.525Z,35.56
2022-12-25T13:07:10.319Z,35.55
2022-12-25T13:09:49.727Z,35.51
2022-12-25T13:12:18.023Z,35.53
2022-12-25T13:14:47.967Z,35.74
2022-12-25T13:17:18.923Z,35.59
2022-12-25T13:19:46.925Z,35.53
2022-12-25T13:22:24.488Z,35.73
2022-12-25T13:24:59.890Z,35.50
2022-12-25T13:27:28.948Z,35.84
2022-12-25T13:29:57.997Z,35.58
2022-12-25T13:32:28.530Z,35.70
2022-12-25T13:34:55.880Z,35.78
2022-12-25T13:37:24.726Z,35.96
2022-12-25T13:39:54.765Z,35.77
2022-12-25T13:42:25.404Z,35.52
2022-12-25T13:44:55.106Z,35.47
2022-12-25T13:47:25.877Z,35.65
2022-12-25T13:49:54.825Z,35.74
2022-12-25T13:52:24.267Z,35.55
2022-12-25T13:55:00.868Z,35.63
2022-12-25T13:57:31.361Z,35.80
2022-12-25T13:59:59.015Z,35.60
2022-12-25T14:02:31.846Z,35.61
2022-12-25T14:04:58.975Z,35.71
2022-12-25T14:07:27.290Z,35.52
2022-12-25T14:09:58.517Z,35.96
2022-12-25T14:12:27.993Z,35.95
2022-12-25T14:14:56.289Z,35.52
2022-12-25T14:17:23.698Z,35.80
2022-12-25T14:20:04.068Z,35.80
2022-12-25T14:22:36.052Z,35.71
2022-12-25T14:25:03.038Z,35.69
2022-12-25T14:27:32.762Z,35.53
2022-12-25T14:30:00.766Z,35.78
2022-12-25T14:32:30.587Z,35.95
2022-12-25T14:35:04.611Z,36.04
2022-12-25T14:37:33.295Z,35.64
2022-12-25T14:40:02.021Z,35.72
2022-12-25T14:42:31.437Z,35.88
2022-12-25T14:45:04.544Z,35.68
2022-12-25T14:47:32.898Z,35.61
2022-12-25T14:50:01.224Z,35.87
2022-12-25T14:52:32.935Z,35.79
2022-12-25T14:55:01.942Z,35.71
2022-12-25T14:57:33.262Z,35.85
2022-12-25T15:00:05.295Z,35.87
2022-12-25T15:02:43.374Z,35.52
2022-12-25T15:05:29.535Z,35.83
2022-12-25T15:08:06.337Z,35.92
2022-12-25T15:13:20.472Z,35.86
2022-12-25T15:15:51.452Z,35.93
2022-12-25T15:18:19.902Z,35.60
2022-12-25T15:20:52.378Z,35.92
2022-12-25T15:23:21.007Z,35.65
2022-12-25T15:25:48.467Z,35.79
2022-12-25T15:28:15.403Z,35.52
2022-12-25T15:30:42.495Z,35.70
2022-12-25T15:33:14.539Z,35.87
2022-12-25T15:35:41.764Z,35.67
2022-12-25T15:38:10.401Z,35.74
2022-12-25T15:40:37.648Z,35.83
2022-12-25T15:43:11.318Z,35.56
2022-12-25T15:45:49.507Z,35.75
2022-12-25T15:48:16.470Z,35.74
2022-12-25T15:50:44.330Z,35.52
2022-12-25T15:53:12.848Z,35.66
2022-12-25T15:55:40.222Z,35.75
2022-12-25T15:58:11.172Z,35.89
2022-12-25T16:00:38.127Z,35.59
2022-12-25T16:03:05.054Z,35.65
2022-12-25T16:05:32.031Z,35.61
2022-12-25T16:07:58.974Z,35.71
2022-12-25T16:10:29.202Z,35.93
2022-12-25T16:12:59.087Z,35.92
2022-12-25T16:15:26.235Z,35.70
2022-12-25T16:17:53.087Z,35.88
2022-12-25T16:20:20.033Z,35.88
2022-12-25T16:22:46.876Z,35.89
2022-12-25T16:25:16.009Z,35.52
2022-12-25T16:27:44.826Z,35.77
2022-12-25T16:30:14.594Z,35.88
2022-12-25T16:32:45.342Z,35.51
2022-12-25T16:35:12.499Z,35.50
2022-12-25T16:37:39.872Z,35.48
2022-12-25T16:40:09.624Z,35.72
2022-12-25T16:42:37.147Z,35.94
2022-12-25T16:45:06.717Z,35.79
2022-12-25T16:47:33.875Z,35.60
2022-12-25T16:50:00.942Z,35.64
2022-12-25T16:52:27.849Z,35.88
2022-12-25T16:54:54.769Z,35.79
2022-12-25T16:57:21.630Z,35.54
2022-12-25T16:59:48.631Z,35.51
2022-12-25T17:02:19.050Z,35.93
2022-12-25T17:04:47.062Z,35.79
2022-12-25T17:07:16.240Z,35.75
2022-12-25T17:09:44.556Z,35.71
2022-12-25T17:12:11.630Z,35.72
2022-12-25T17:14:38.534Z,35.45
2022-12-25T17:17:05.680Z,35.43
2022-12-25T17:19:34.029Z,35.58
2022-12-25T17:22:00.945Z,35.63
2022-12-25T17:24:28.845Z,35.75
2022-12-25T17:26:55.956Z,35.91
2022-12-25T17:29:23.236Z,35.66
2022-12-25T17:31:51.259Z,35.61
2022-12-25T17:34:18.392Z,35.40
2022-12-25T17:36:47.005Z,35.61
2022-12-25T17:39:13.853Z,35.66
2022-12-25T17:41:40.765Z,35.48
2022-12-25T17:44:09.664Z,35.62
2022-12-25T17:46:40.519Z,35.83
2022-12-25T17:49:08.635Z,35.58
2022-12-25T17:51:35.571Z,35.58
2022-12-25T17:54:04.072Z,35.56
2022-12-25T17:56:31.937Z,35.67
2022-12-25T17:59:01.245Z,35.91
2022-12-25T18:01:29.341Z,35.54
2022-12-25T18:03:58.522Z,35.57
2022-12-25T18:06:27.891Z,35.89
2022-12-25T18:08:55.902Z,35.75
2022-12-25T18:11:29.177Z,35.64
2022-12-25T18:13:57.995Z,35.75
2022-12-25T18:16:26.702Z,35.67
2022-12-25T18:18:53.791Z,35.54
2022-12-25T18:21:21.557Z,35.69
2022-12-25T18:23:48.790Z,35.77
2022-12-25T18:26:15.828Z,35.29
2022-12-25T18:28:44.412Z,35.33
2022-12-25T18:31:16.884Z,35.56
2022-12-25T18:33:44.799Z,35.25
2022-12-25T18:36:13.152Z,35.43
2022-12-25T18:38:40.504Z,35.33
2022-12-25T18:41:09.599Z,35.41
2022-12-25T18:43:53.663Z,35.32
2022-12-25T18:46:24.930Z,35.29
2022-12-25T18:48:52.538Z,35.12
2022-12-25T18:51:19.519Z,35.45
2022-12-25T18:53:46.461Z,35.25
2022-12-25T18:56:17.409Z,35.23
2022-12-25T18:58:45.695Z,35.40
2022-12-25T19:01:15.367Z,35.40
2022-12-25T19:03:44.438Z,35.03
2022-12-25T19:06:17.200Z,35.23
2022-12-25T19:08:44.323Z,35.02
2022-12-25T19:11:11.236Z,35.35
2022-12-25T19:13:38.257Z,35.38
2022-12-25T19:16:05.632Z,35.05
2022-12-25T19:18:32.541Z,35.39
2022-12-25T19:21:02.874Z,34.99
2022-12-25T19:23:29.885Z,35.02
2022-12-25T19:25:56.845Z,34.91
2022-12-25T19:28:25.105Z,35.32
2022-12-25T19:30:52.849Z,35.08
2022-12-25T19:33:20.190Z,34.92
2022-12-25T19:35:48.322Z,34.91
2022-12-25T19:38:16.650Z,34.87
2022-12-25T19:41:00.386Z,34.87
2022-12-25T19:43:28.289Z,34.90
2022-12-25T19:45:55.201Z,34.80
2022-12-25T19:48:22.318Z,35.20
2022-12-25T19:50:49.420Z,35.05
2022-12-25T19:53:18.501Z,34.85
2022-12-25T19:55:45.520Z,35.17
2022-12-25T19:58:12.622Z,34.95
2022-12-25T20:00:40.519Z,34.71
2022-12-25T20:03:09.727Z,34.99
2022-12-25T20:05:36.956Z,34.72
2022-12-25T20:08:03.944Z,34.80
2022-12-25T20:10:32.201Z,34.87
2022-12-25T20:12:59.086Z,34.91
2022-12-25T20:15:26.182Z,34.74
2022-12-25T20:17:54.769Z,34.69
2022-12-25T20:20:21.645Z,34.87
2022-12-25T20:22:48.690Z,34.60
2022-12-25T20:25:15.709Z,34.82
2022-12-25T20:27:44.005Z,34.70
2022-12-25T20:30:11.959Z,34.79
2022-12-25T20:32:39.028Z,34.67
2022-12-25T20:35:07.722Z,34.79
2022-12-25T20:37:34.699Z,34.79
2022-12-25T20:40:01.707Z,34.67
2022-12-25T20:42:28.563Z,34.53
2022-12-25T20:44:56.810Z,34.62
2022-12-25T20:47:23.835Z,34.57
2022-12-25T20:49:50.811Z,34.56
2022-12-25T20:52:17.779Z,34.79
2022-12-25T20:54:44.736Z,34.71
2022-12-25T20:57:11.590Z,34.66
2022-12-25T20:59:38.523Z,34.63
2022-12-25T21:02:07.115Z,34.87
2022-12-25T21:04:34.366Z,34.73
2022-12-25T21:07:02.542Z,34.74
2022-12-25T21:09:29.548Z,34.81
2022-12-25T21:11:57.007Z,34.87
2022-12-25T21:14:23.998Z,34.88
2022-12-25T21:16:51.045Z,34.91
2022-12-25T21:19:19.372Z,34.50
2022-12-25T21:21:46.258Z,34.72
2022-12-25T21:24:13.158Z,34.88
2022-12-25T21:26:46.119Z,34.82
2022-12-25T21:29:16.665Z,35.17
2022-12-25T21:32:01.787Z,34.91
2022-12-25T21:34:30.919Z,34.84
2022-12-25T21:36:57.926Z,34.99
2022-12-25T21:39:24.851Z,34.82
2022-12-25T21:41:52.870Z,34.98
2022-12-25T21:44:19.746Z,35.28
2022-12-25T21:46:46.679Z,35.18
2022-12-25T21:49:33.564Z,34.76
2022-12-25T21:52:08.207Z,34.82
2022-12-25T21:54:35.443Z,35.08
2022-12-25T21:57:02.408Z,34.91
2022-12-25T21:59:29.647Z,34.85
2022-12-25T22:01:56.807Z,34.96
2022-12-25T22:04:23.837Z,34.83
2022-12-25T22:07:09.308Z,34.74
2022-12-25T22:09:38.080Z,34.76
2022-12-25T22:12:26.209Z,34.62
2022-12-25T22:15:02.787Z,34.68
2022-12-25T22:17:51.075Z,35.17
2022-12-25T22:20:20.487Z,34.93
2022-12-25T22:22:48.365Z,35.28
2022-12-25T22:25:17.397Z,35.32
2022-12-25T22:27:45.980Z,34.94
2022-12-25T22:30:15.718Z,35.24
2022-12-25T22:32:43.047Z,35.52
2022-12-25T22:35:12.399Z,35.21
2022-12-25T22:37:40.133Z,35.17
2022-12-25T22:40:08.290Z,35.08
2022-12-25T22:42:36.850Z,35.25
2022-12-25T22:45:04.428Z,35.02
2022-12-25T22:47:31.358Z,35.18
2022-12-25T22:49:58.393Z,35.44
2022-12-25T22:52:25.325Z,35.06
2022-12-25T22:54:52.235Z,35.37
2022-12-25T22:57:19.170Z,35.19
2022-12-25T22:59:47.564Z,35.38
2022-12-25T23:02:14.749Z,35.23
2022-12-25T23:04:42.074Z,35.39
2022-12-25T23:07:10.470Z,35.24
2022-12-25T23:09:37.681Z,35.48
2022-12-25T23:12:05.322Z,35.15
2022-12-25T23:14:41.098Z,35.43
2022-12-25T23:17:31.525Z,35.28
2022-12-25T23:20:18.299Z,35.45
2022-12-25T23:23:04.234Z,35.37
2022-12-25T23:25:49.927Z,35.50
2022-12-25T23:28:36.866Z,35.07
2022-12-25T23:31:03.923Z,35.37
2022-12-25T23:33:32.346Z,35.40
2022-12-25T23:35:59.201Z,35.35
2022-12-25T23:38:26.087Z,35.10
2022-12-25T23:40:53.054Z,35.46
2022-12-25T23:43:19.884Z,35.39
2022-12-25T23:45:46.825Z,35.41
2022-12-25T23:48:13.726Z,35.29
2022-12-25T23:50:42.019Z,35.31
2022-12-25T23:53:09.939Z,35.23
2022-12-25T23:55:37.032Z,35.21
2022-12-25T23:58:04.326Z,35.02
